Time;durP1;ratioP1;P1;durP2;ratioP2;P2;SDS_P1;SDS_P2;PMS_P1;PMS_P2;Temp;Humidity;BMP_temperature;BMP_pressure;BME280_temperature;BME280_humidity;BME280_pressure;Samples;Min_cycle;Max_cycle;Signal;HPM_P1;HPM_P2
2023/05/23 00:01:53;;;;;;;;;;;;;;;-140.72;100.00;52597.84;5009427;28;19918;-71
2023/05/23 00:04:19;;;;;;;;;;;;;;;-140.72;100.00;52614.06;5016563;28;20332;-71
2023/05/23 00:06:58;;;;;;;;;;;;;;;-140.72;100.00;52622.19;5006342;28;19926;-71
2023/05/23 00:09:23;;;;;;;;;;;;;;;-140.72;100.00;52577.53;4997764;28;20344;-71
2023/05/23 00:11:48;;;;;;;;;;;;;;;-140.72;100.00;52577.53;5012141;28;19928;-71
2023/05/23 00:14:14;;;;;;;;;;;;;;;-140.72;100.00;52636.38;5005107;28;20279;-72
2023/05/23 00:16:43;;;;;;;;;;;;;;;-140.72;100.00;52610.00;5007496;28;19976;-71
2023/05/23 00:19:10;;;;;;;;;;;;;;;-140.72;100.00;52618.13;5016034;28;19925;-71
2023/05/23 00:21:35;;;;;;;;;;;;;;;-140.72;100.00;52607.97;5016453;28;19975;-71
2023/05/23 00:24:03;;;;;;;;;;;;;;;-140.72;100.00;52636.38;5016589;28;20400;-71
2023/05/23 00:26:29;;;;;;;;;;;;;;;-140.72;100.00;52622.19;5013402;28;20864;-71
2023/05/23 00:28:55;;;;;;;;;;;;;;;-140.72;100.00;52585.66;5008912;28;19922;-71
2023/05/23 00:31:20;;;;;;;;;;;;;;;-140.72;100.00;52603.94;5011522;28;19921;-71
2023/05/23 00:33:45;;;;;;;;;;;;;;;-140.72;100.00;52605.94;5003541;28;19928;-71
2023/05/23 00:36:12;;;;;;;;;;;;;;;-140.72;100.00;52644.50;5014821;28;20004;-72
2023/05/23 00:38:38;;;;;;;;;;;;;;;-140.72;100.00;52595.81;5001165;28;19921;-71
2023/05/23 00:41:03;;;;;;;;;;;;;;;-140.72;100.00;52622.19;5002878;28;19924;-71
2023/05/23 00:43:28;;;;;;;;;;;;;;;-140.72;100.00;52605.94;5015599;28;19922;-71
2023/05/23 00:45:55;;;;;;;;;;;;;;;-140.72;100.00;52599.88;5010645;28;19922;-71
2023/05/23 00:48:20;;;;;;;;;;;;;;;-140.72;100.00;52601.91;5015064;28;19934;-71
2023/05/23 00:50:53;;;;;;;;;;;;;;;-140.72;100.00;52638.41;5015675;28;19924;-71
2023/05/23 00:53:18;;;;;;;;;;;;;;;-140.72;100.00;52610.00;5005241;28;20015;-71
2023/05/23 00:55:44;;;;;;;;;;;;;;;-140.72;100.00;52620.16;5006302;28;20003;-72
2023/05/23 00:58:10;;;;;;;;;;;;;;;-140.72;100.00;52612.03;5014163;28;19984;-71
2023/05/23 01:00:37;;;;;;;;;;;;;;;-140.72;100.00;52666.84;5014131;28;19922;-71
2023/05/23 01:03:03;;;;;;;;;;;;;;;-140.72;100.00;52638.41;5015116;28;19993;-71
2023/05/23 01:05:29;;;;;;;;;;;;;;;-140.72;100.00;52610.00;5010504;28;20282;-71
2023/05/23 01:07:54;;;;;;;;;;;;;;;-140.72;100.00;52624.22;5019745;28;19960;-71
2023/05/23 01:10:24;;;;;;;;;;;;;;;-140.72;100.00;52632.34;5015795;28;19961;-71
2023/05/23 01:13:01;;;;;;;;;;;;;;;-140.72;100.00;52658.72;5014685;28;19944;-71
2023/05/23 01:15:30;;;;;;;;;;;;;;;-140.72;100.00;52614.06;5002420;28;19956;-71
2023/05/23 01:18:01;;;;;;;;;;;;;;;-140.72;100.00;52597.84;5013785;28;19995;-71
2023/05/23 01:20:40;;;;;;;;;;;;;;;-140.72;100.00;52607.97;5009410;28;19944;-71
2023/05/23 01:23:13;;;;;;;;;;;;;;;-140.72;100.00;52593.78;5008587;28;19921;-72
2023/05/23 01:25:48;;;;;;;;;;;;;;;-140.72;100.00;52622.19;5015034;28;19917;-71
2023/05/23 01:28:17;;;;;;;;;;;;;;;-140.72;100.00;52648.56;5000263;28;19921;-71
2023/05/23 01:30:44;;;;;;;;;;;;;;;-140.72;100.00;52622.19;5008515;28;19921;-71
2023/05/23 01:33:12;;;;;;;;;;;;;;;-140.72;100.00;52605.94;5015172;28;20375;-71
2023/05/23 01:35:38;;;;;;;;;;;;;;;-140.72;100.00;52626.25;5011198;28;19944;-71
2023/05/23 01:38:03;;;;;;;;;;;;;;;-140.72;100.00;52593.78;5014420;28;19921;-71
2023/05/23 01:40:28;;;;;;;;;;;;;;;-140.72;100.00;52599.88;5014499;28;19922;-71
2023/05/23 01:42:56;;;;;;;;;;;;;;;-140.72;100.00;52626.25;5009296;28;19922;-71
2023/05/23 01:45:22;;;;;;;;;;;;;;;-140.72;100.00;52658.72;5012780;28;19917;-71
2023/05/23 01:47:49;;;;;;;;;;;;;;;-140.72;100.00;52597.84;5014591;28;19921;-71
2023/05/23 01:50:15;;;;;;;;;;;;;;;-140.72;100.00;52646.53;5025812;28;19980;-71
2023/05/23 01:52:41;;;;;;;;;;;;;;;-140.72;100.00;52601.91;5012939;28;20008;-71
2023/05/23 01:55:08;;;;;;;;;;;;;;;-140.72;100.00;52616.09;5006229;28;20035;-71
2023/05/23 01:57:34;;;;;;;;;;;;;;;-140.72;100.00;52603.94;5009110;28;19956;-71
2023/05/23 01:59:59;;;;;;;;;;;;;;;-140.72;100.00;52622.19;5014372;28;19922;-71
2023/05/23 02:02:25;;;;;;;;;;;;;;;-140.72;100.00;52630.31;5011366;28;19936;-71
2023/05/23 02:04:50;;;;;;;;;;;;;;;-140.72;100.00;52614.06;5002128;28;19953;-71
2023/05/23 02:07:15;;;;;;;;;;;;;;;-140.72;100.00;52603.94;5007847;28;19925;-71
2023/05/23 02:09:40;;;;;;;;;;;;;;;-140.72;100.00;52607.97;5007720;28;20272;-71
2023/05/23 02:12:06;;;;;;;;;;;;;;;-140.72;100.00;52614.06;5001373;28;19940;-71
2023/05/23 02:14:31;;;;;;;;;;;;;;;-140.72;100.00;52622.19;5006059;28;19918;-71
2023/05/23 02:16:56;;;;;;;;;;;;;;;-140.72;100.00;52628.28;5016829;28;19925;-71
2023/05/23 02:19:21;;;;;;;;;;;;;;;-140.72;100.00;52597.84;5012734;28;19984;-71
2023/05/23 02:21:47;;;;;;;;;;;;;;;-140.72;100.00;52614.06;5011353;28;19917;-71
2023/05/23 02:24:12;;;;;;;;;;;;;;;-140.72;100.00;52593.78;5009999;28;19924;-72
2023/05/23 02:26:37;;;;;;;;;;;;;;;-140.72;100.00;52632.34;5017297;28;20020;-71
2023/05/23 02:29:02;;;;;;;;;;;;;;;-140.72;100.00;52603.94;5016063;28;19968;-71
2023/05/23 02:31:27;;;;;;;;;;;;;;;-140.72;100.00;52595.81;5003512;28;19967;-71
2023/05/23 02:33:53;;;;;;;;;;;;;;;-140.72;100.00;52614.06;5017627;28;19921;-71
2023/05/23 02:36:18;;;;;;;;;;;;;;;-140.72;100.00;52636.38;5016381;28;19928;-71
2023/05/23 02:41:36;;;;;;;;;;;;;;;-140.72;100.00;52642.47;5013683;28;20012;-71
2023/05/23 02:44:07;;;;;;;;;;;;;;;-140.72;100.00;52612.03;5008973;28;20370;-71
2023/05/23 02:46:32;;;;;;;;;;;;;;;-140.72;100.00;52630.31;5006040;28;20340;-71
2023/05/23 02:48:57;;;;;;;;;;;;;;;-140.72;100.00;52585.66;5000478;28;19918;-71
2023/05/23 02:51:23;;;;;;;;;;;;;;;-140.72;100.00;52603.94;5014965;28;19972;-71
2023/05/23 02:53:48;;;;;;;;;;;;;;;-140.72;100.00;52630.31;5015280;28;19921;-71
2023/05/23 02:56:14;;;;;;;;;;;;;;;-140.72;100.00;52644.50;5014327;28;19930;-71
2023/05/23 02:58:40;;;;;;;;;;;;;;;-140.72;100.00;52614.06;5017990;28;19926;-71
2023/05/23 03:01:05;;;;;;;;;;;;;;;-140.72;100.00;52610.00;5017861;28;20394;-71
2023/05/23 03:03:30;;;;;;;;;;;;;;;-140.72;100.00;52618.13;5015049;28;20017;-71
2023/05/23 03:05:58;;;;;;;;;;;;;;;-140.72;100.00;52628.28;5020216;28;20013;-71
2023/05/23 03:08:24;;;;;;;;;;;;;;;-140.72;100.00;52610.00;5014144;28;19924;-71
2023/05/23 03:10:49;;;;;;;;;;;;;;;-140.72;100.00;52605.94;5001317;28;19918;-71
2023/05/23 03:13:15;;;;;;;;;;;;;;;-140.72;100.00;52638.41;4999895;28;20345;-71
2023/05/23 03:15:40;;;;;;;;;;;;;;;-140.72;100.00;52591.75;5015775;28;19921;-71
2023/05/23 03:18:06;;;;;;;;;;;;;;;-140.72;100.00;52638.41;5007849;28;20003;-70
2023/05/23 03:20:31;;;;;;;;;;;;;;;-140.72;100.00;52626.25;5006992;28;19921;-71
2023/05/23 03:22:56;;;;;;;;;;;;;;;-140.72;100.00;52630.31;5018045;28;19929;-71
2023/05/23 03:25:21;;;;;;;;;;;;;;;-140.72;100.00;52614.06;5009998;28;19922;-71
2023/05/23 03:27:46;;;;;;;;;;;;;;;-140.72;100.00;52650.59;5016438;28;20263;-71
2023/05/23 03:30:12;;;;;;;;;;;;;;;-140.72;100.00;52601.91;5016374;28;20346;-71
2023/05/23 03:32:37;;;;;;;;;;;;;;;-140.72;100.00;52612.03;5015845;28;20402;-71
2023/05/23 03:35:02;;;;;;;;;;;;;;;-140.72;100.00;52601.91;5012030;28;19921;-71
2023/05/23 03:37:28;;;;;;;;;;;;;;;-140.72;100.00;52630.31;5017283;28;19928;-71
2023/05/23 03:39:53;;;;;;;;;;;;;;;-140.72;100.00;52654.66;5013508;28;19921;-71
2023/05/23 03:42:18;;;;;;;;;;;;;;;-140.72;100.00;52634.38;5015779;28;19917;-71
2023/05/23 03:44:43;;;;;;;;;;;;;;;-140.72;100.00;52656.69;5017199;28;19991;-70
2023/05/23 03:47:08;;;;;;;;;;;;;;;-140.72;100.00;52632.34;5004745;28;19928;-71
2023/05/23 03:49:34;;;;;;;;;;;;;;;-140.72;100.00;52648.56;5016985;28;19921;-71
2023/05/23 03:51:59;;;;;;;;;;;;;;;-140.72;100.00;52605.94;5015764;28;19926;-71
2023/05/23 03:54:24;;;;;;;;;;;;;;;-140.72;100.00;52646.53;5015358;28;19925;-71
2023/05/23 03:56:49;;;;;;;;;;;;;;;-140.72;100.00;52610.00;5016036;28;19921;-71
2023/05/23 03:59:15;;;;;;;;;;;;;;;-140.72;100.00;52593.78;4998432;28;19922;-71
2023/05/23 04:01:40;;;;;;;;;;;;;;;-140.72;100.00;52618.13;5011960;28;19924;-73
2023/05/23 04:04:05;;;;;;;;;;;;;;;-140.72;100.00;52632.34;5007754;28;19922;-72
2023/05/23 04:06:30;;;;;;;;;;;;;;;-140.72;100.00;52612.03;5016838;28;19917;-70
2023/05/23 04:08:56;;;;;;;;;;;;;;;-140.72;100.00;52652.63;5015638;28;19921;-71
2023/05/23 04:11:21;;;;;;;;;;;;;;;-140.72;100.00;52644.50;5017760;28;19917;-71
2023/05/23 04:13:46;;;;;;;;;;;;;;;-140.72;100.00;52642.47;5014917;28;20396;-71
2023/05/23 04:16:12;;;;;;;;;;;;;;;-140.72;100.00;52614.06;5006978;28;19953;-71
2023/05/23 04:18:37;;;;;;;;;;;;;;;-140.72;100.00;52638.41;5011323;28;19956;-72
2023/05/23 04:21:03;;;;;;;;;;;;;;;-140.72;100.00;52593.78;5014893;28;19921;-70
2023/05/23 04:23:28;;;;;;;;;;;;;;;-140.72;100.00;52650.59;5014168;28;19941;-70
2023/05/23 04:25:54;;;;;;;;;;;;;;;-140.72;100.00;52642.47;5014397;28;20334;-70
2023/05/23 04:28:19;;;;;;;;;;;;;;;-140.72;100.00;52646.53;5013313;28;19957;-71
2023/05/23 04:30:44;;;;;;;;;;;;;;;-140.72;100.00;52638.41;5013849;28;19972;-71
2023/05/23 04:33:10;;;;;;;;;;;;;;;-140.72;100.00;52658.72;5007929;28;19930;-71
2023/05/23 04:35:37;;;;;;;;;;;;;;;-140.72;100.00;52630.31;5014032;28;19928;-72
2023/05/23 04:38:03;;;;;;;;;;;;;;;-140.72;100.00;52658.72;5023435;28;19976;-72
2023/05/23 04:40:28;;;;;;;;;;;;;;;-140.72;100.00;52676.97;5012914;28;20389;-72
2023/05/23 04:42:54;;;;;;;;;;;;;;;-140.72;100.00;52622.19;5013681;28;19918;-72
2023/05/23 04:45:19;;;;;;;;;;;;;;;-140.72;100.00;52654.66;5005998;28;19981;-72
2023/05/23 04:47:45;;;;;;;;;;;;;;;-140.72;100.00;52630.31;5011432;28;19921;-73
2023/05/23 04:50:10;;;;;;;;;;;;;;;-140.72;100.00;52638.41;5004676;28;19925;-73
2023/05/23 04:52:36;;;;;;;;;;;;;;;-140.72;100.00;52636.38;5006715;28;20380;-73
2023/05/23 04:55:01;;;;;;;;;;;;;;;-140.72;100.00;52681.03;5013481;28;20302;-73
2023/05/23 04:57:26;;;;;;;;;;;;;;;-140.72;100.00;52642.47;5014411;28;19929;-73
2023/05/23 04:59:51;;;;;;;;;;;;;;;-140.72;100.00;52654.66;5013814;28;19925;-75
2023/05/23 05:02:18;;;;;;;;;;;;;;;-140.72;100.00;52622.19;5013285;28;20371;-74
2023/05/23 05:04:43;;;;;;;;;;;;;;;-140.72;100.00;52674.94;5013625;28;20000;-74
2023/05/23 05:07:09;;;;;;;;;;;;;;;-140.72;100.00;52618.13;5009673;28;19969;-73
2023/05/23 05:09:35;;;;;;;;;;;;;;;-140.72;100.00;52638.41;4993298;28;20342;-73
2023/05/23 05:12:00;;;;;;;;;;;;;;;-140.72;100.00;52610.00;5016949;28;19930;-75
2023/05/23 05:14:26;;;;;;;;;;;;;;;-140.72;100.00;52648.56;5007407;28;19922;-72
2023/05/23 05:16:51;;;;;;;;;;;;;;;-140.72;100.00;52624.22;5013176;28;19971;-70
2023/05/23 05:19:16;;;;;;;;;;;;;;;-140.72;100.00;52632.34;5013927;28;19928;-71
2023/05/23 05:21:41;;;;;;;;;;;;;;;-140.72;100.00;52636.38;5012835;28;19921;-71
2023/05/23 05:24:08;;;;;;;;;;;;;;;-140.72;100.00;52605.94;5006259;28;20005;-71
2023/05/23 05:26:47;;;;;;;;;;;;;;;-140.72;100.00;52622.19;5009369;28;19928;-72
2023/05/23 05:29:13;;;;;;;;;;;;;;;-140.72;100.00;52632.34;5014280;28;20067;-72
2023/05/23 05:31:39;;;;;;;;;;;;;;;-140.72;100.00;52660.75;5013961;28;19956;-72
2023/05/23 05:34:04;;;;;;;;;;;;;;;-140.72;100.00;52632.34;5014060;28;19925;-72
2023/05/23 05:36:31;;;;;;;;;;;;;;;-140.72;100.00;52656.69;5014052;28;19917;-72
2023/05/23 05:38:56;;;;;;;;;;;;;;;-140.72;100.00;52646.53;5012262;28;20012;-72
2023/05/23 05:41:22;;;;;;;;;;;;;;;-140.72;100.00;52630.31;5012155;28;20398;-76
2023/05/23 05:43:47;;;;;;;;;;;;;;;-140.72;100.00;52648.56;5009273;28;19992;-75
2023/05/23 05:46:12;;;;;;;;;;;;;;;-140.72;100.00;52597.84;5011489;28;20016;-72
2023/05/23 05:48:37;;;;;;;;;;;;;;;-140.72;100.00;52650.59;5012555;28;19944;-73
2023/05/23 05:51:03;;;;;;;;;;;;;;;-140.72;100.00;52650.59;5016627;28;19917;-73
2023/05/23 05:53:28;;;;;;;;;;;;;;;-140.72;100.00;52630.31;5009693;28;19921;-74
2023/05/23 05:55:53;;;;;;;;;;;;;;;-140.72;100.00;52628.28;4999522;28;19964;-73
2023/05/23 05:58:19;;;;;;;;;;;;;;;-140.72;100.00;52601.91;5002689;28;19917;-74
2023/05/23 06:00:44;;;;;;;;;;;;;;;-140.72;100.00;52650.59;5016738;28;20409;-75
2023/05/23 06:03:27;;;;;;;;;;;;;;;-140.72;100.00;52652.63;5008841;28;20287;-76
2023/05/23 06:05:52;;;;;;;;;;;;;;;-140.72;100.00;52614.06;5016457;28;19926;-74
2023/05/23 06:08:17;;;;;;;;;;;;;;;-140.72;100.00;52634.38;5016116;28;19944;-74
2023/05/23 06:10:43;;;;;;;;;;;;;;;-140.72;100.00;52616.09;5015517;28;19933;-73
2023/05/23 06:13:14;;;;;;;;;;;;;;;-140.72;100.00;52654.66;5006143;28;20399;-70
2023/05/23 06:15:40;;;;;;;;;;;;;;;-140.72;100.00;52638.41;5015602;28;19921;-70
2023/05/23 06:18:05;;;;;;;;;;;;;;;-140.72;100.00;52662.78;4998028;28;20025;-70
2023/05/23 06:20:30;;;;;;;;;;;;;;;-140.72;100.00;52638.41;5015349;28;20009;-71
2023/05/23 06:22:55;;;;;;;;;;;;;;;-140.72;100.00;52618.13;5006006;28;19964;-71
2023/05/23 06:25:21;;;;;;;;;;;;;;;-140.72;100.00;52616.09;5015639;28;19917;-72
2023/05/23 06:27:46;;;;;;;;;;;;;;;-140.72;100.00;52638.41;5017305;28;19917;-71
2023/05/23 06:30:11;;;;;;;;;;;;;;;-140.72;100.00;52634.38;5016662;28;19964;-71
2023/05/23 06:32:37;;;;;;;;;;;;;;;-140.72;100.00;52628.28;5009934;28;20244;-71
2023/05/23 06:35:02;;;;;;;;;;;;;;;-140.72;100.00;52646.53;5015791;28;19917;-71
2023/05/23 06:37:27;;;;;;;;;;;;;;;-140.72;100.00;52605.94;5015466;28;20386;-71
2023/05/23 06:39:52;;;;;;;;;;;;;;;-140.72;100.00;52636.38;5014817;28;19986;-71
2023/05/23 06:42:18;;;;;;;;;;;;;;;-140.72;100.00;52634.38;5015438;28;19917;-72
2023/05/23 06:44:43;;;;;;;;;;;;;;;-140.72;100.00;52605.94;5011869;28;20004;-72
2023/05/23 06:47:08;;;;;;;;;;;;;;;-140.72;100.00;52654.66;5013308;28;20350;-72
2023/05/23 06:49:33;;;;;;;;;;;;;;;-140.72;100.00;52642.47;5009204;28;19924;-71
2023/05/23 06:51:58;;;;;;;;;;;;;;;-140.72;100.00;52632.34;5017358;28;19917;-71
2023/05/23 06:54:24;;;;;;;;;;;;;;;-140.72;100.00;52668.84;5015484;28;20275;-71
2023/05/23 06:56:49;;;;;;;;;;;;;;;-140.72;100.00;52605.94;4997584;28;19917;-71
2023/05/23 06:59:14;;;;;;;;;;;;;;;-140.72;100.00;52603.94;4997519;28;19929;-71
2023/05/23 07:01:40;;;;;;;;;;;;;;;-140.72;100.00;52601.91;5015529;28;19951;-71
2023/05/23 07:04:05;;;;;;;;;;;;;;;-140.72;100.00;52638.41;5016358;28;20381;-71
2023/05/23 07:06:31;;;;;;;;;;;;;;;-140.72;100.00;52642.47;5016664;28;19921;-71
2023/05/23 07:08:56;;;;;;;;;;;;;;;-140.72;100.00;52618.13;5016616;28;20017;-71
2023/05/23 07:11:22;;;;;;;;;;;;;;;-140.72;100.00;52634.38;5008879;28;19953;-71
2023/05/23 07:13:47;;;;;;;;;;;;;;;-140.72;100.00;52650.59;5008396;28;20310;-71
2023/05/23 07:16:12;;;;;;;;;;;;;;;-140.72;100.00;52634.38;5006001;28;19925;-71
2023/05/23 07:18:37;;;;;;;;;;;;;;;-140.72;100.00;52581.59;5014390;28;19983;-71
2023/05/23 07:21:03;;;;;;;;;;;;;;;-140.72;100.00;52581.59;5016475;28;19921;-71
2023/05/23 07:23:31;;;;;;;;;;;;;;;-140.72;91.11;52575.50;5016119;28;19964;-71
2023/05/23 07:25:56;;;;;;;;;;;;;;;-140.72;45.74;52510.59;5016340;28;20347;-71
2023/05/23 07:28:21;;;;;;;;;;;;;;;-140.72;11.27;52555.22;5015780;28;19917;-71
2023/05/23 07:30:46;;;;;;;;;;;;;;;-140.72;1.35;52569.44;5016180;28;19960;-71
2023/05/23 07:33:13;;;;;;;;;;;;;;;-140.72;0.00;52577.53;5002699;28;19960;-71
2023/05/23 07:35:38;;;;;;;;;;;;;;;-140.72;0.00;52577.53;5008276;28;20367;-71
2023/05/23 07:38:03;;;;;;;;;;;;;;;-140.72;0.00;52528.84;5016410;28;19971;-71
2023/05/23 07:40:28;;;;;;;;;;;;;;;-140.72;0.00;52577.53;5012899;28;19953;-71
2023/05/23 07:42:54;;;;;;;;;;;;;;;-140.72;0.00;52573.50;5012698;28;19922;-71
2023/05/23 07:45:19;;;;;;;;;;;;;;;-140.72;0.00;52571.47;5015657;28;19955;-71
2023/05/23 07:47:45;;;;;;;;;;;;;;;-140.72;0.00;52589.72;5015663;28;19922;-71
2023/05/23 07:50:10;;;;;;;;;;;;;;;-140.72;0.00;52526.81;5014607;28;20279;-71
2023/05/23 07:52:35;;;;;;;;;;;;;;;-140.72;0.00;52581.59;5006133;28;19967;-71
2023/05/23 07:55:00;;;;;;;;;;;;;;;-140.72;0.00;52571.47;5013971;28;19917;-71
2023/05/23 07:57:26;;;;;;;;;;;;;;;-140.72;0.00;52581.59;5016156;28;19918;-71
2023/05/23 07:59:51;;;;;;;;;;;;;;;-140.72;0.00;52569.44;5015416;28;19925;-71
2023/05/23 08:02:17;;;;;;;;;;;;;;;-140.72;0.00;52494.34;5015625;28;19971;-71
2023/05/23 08:04:43;;;;;;;;;;;;;;;-140.72;0.00;52557.25;5026133;28;19918;-71
2023/05/23 08:07:08;;;;;;;;;;;;;;;-140.72;0.00;52547.09;5010414;28;19918;-70
2023/05/23 08:09:34;;;;;;;;;;;;;;;-140.72;0.00;52549.13;5014310;28;19937;-71
2023/05/23 08:11:59;;;;;;;;;;;;;;;-140.72;0.00;52547.09;5015832;28;19918;-71
2023/05/23 08:14:24;;;;;;;;;;;;;;;-140.72;0.00;52536.97;5008420;28;19921;-71
2023/05/23 08:16:50;;;;;;;;;;;;;;;-140.72;0.00;52528.84;4997518;28;19977;-72
2023/05/23 08:19:16;;;;;;;;;;;;;;;-140.72;0.00;52530.88;5015639;28;19918;-72
2023/05/23 08:21:41;;;;;;;;;;;;;;;-140.72;0.00;52547.09;5002235;28;19924;-72
2023/05/23 08:24:07;;;;;;;;;;;;;;;-140.72;0.00;52536.97;5016050;28;19927;-72
2023/05/23 08:26:36;;;;;;;;;;;;;;;-140.72;0.00;52530.88;5001202;28;19917;-71
2023/05/23 08:29:01;;;;;;;;;;;;;;;-140.72;0.00;52557.25;5004698;28;19918;-71
2023/05/23 08:31:30;;;;;;;;;;;;;;;-140.72;0.00;52520.72;5015210;28;19918;-72
2023/05/23 08:33:56;;;;;;;;;;;;;;;-140.72;0.00;52530.88;5014837;28;19976;-72
2023/05/23 08:36:21;;;;;;;;;;;;;;;-140.72;0.00;52534.94;5015048;28;19957;-71
2023/05/23 08:38:49;;;;;;;;;;;;;;;-140.72;0.00;52524.78;5014028;28;20297;-71
2023/05/23 08:41:21;;;;;;;;;;;;;;;-140.72;0.00;52541.03;5014634;28;19925;-71
2023/05/23 08:43:46;;;;;;;;;;;;;;;-140.72;0.00;52437.53;5015039;28;19917;-71
2023/05/23 08:46:12;;;;;;;;;;;;;;;-140.72;0.00;52465.94;5011458;28;19918;-72
2023/05/23 08:48:38;;;;;;;;;;;;;;;-140.72;0.00;52392.88;5002396;28;20306;-72
2023/05/23 08:51:03;;;;;;;;;;;;;;;-140.72;0.00;52451.72;5006091;28;19944;-72
2023/05/23 08:53:30;;;;;;;;;;;;;;;-140.72;0.00;52453.75;5014063;28;19917;-72
2023/05/23 08:55:57;;;;;;;;;;;;;;;-140.72;0.00;52467.97;5014804;28;19922;-72
2023/05/23 08:58:27;;;;;;;;;;;;;;;-140.72;0.00;52439.56;5014436;28;19918;-71
2023/05/23 09:00:54;;;;;;;;;;;;;;;-140.72;0.00;52390.84;5013648;28;19917;-71
2023/05/23 09:03:19;;;;;;;;;;;;;;;-140.72;0.00;52417.25;5022052;28;19917;-71
2023/05/23 09:05:45;;;;;;;;;;;;;;;-140.72;0.00;52374.63;5018856;28;20395;-72
2023/05/23 09:08:12;;;;;;;;;;;;;;;-140.72;0.00;52386.81;5016426;28;20000;-71
2023/05/23 09:10:38;;;;;;;;;;;;;;;-140.72;0.00;52409.13;5014870;28;20240;-72
2023/05/23 09:13:04;;;;;;;;;;;;;;;-140.72;0.00;52419.28;5008385;28;20324;-71
2023/05/23 09:15:30;;;;;;;;;;;;;;;-140.72;0.00;52407.09;5011476;28;19925;-72
2023/05/23 09:17:58;;;;;;;;;;;;;;;-140.72;0.00;52390.84;5015126;28;19917;-72
2023/05/23 09:20:23;;;;;;;;;;;;;;;-140.72;0.00;52447.69;5010235;28;20273;-72
2023/05/23 09:22:49;;;;;;;;;;;;;;;-140.72;0.00;52342.16;5014656;28;19968;-72
2023/05/23 09:25:14;;;;;;;;;;;;;;;-140.72;0.00;52390.84;4995927;28;19975;-72
2023/05/23 09:27:40;;;;;;;;;;;;;;;-140.72;0.00;52360.44;5002211;28;19917;-72
2023/05/23 09:30:06;;;;;;;;;;;;;;;-140.72;0.00;52441.59;5024436;28;20287;-71
2023/05/23 09:32:31;;;;;;;;;;;;;;;-140.72;0.00;52431.44;5005413;28;20004;-72
2023/05/23 09:34:57;;;;;;;;;;;;;;;-140.72;0.00;52478.13;5014635;28;19961;-72
2023/05/23 09:37:36;;;;;;;;;;;;;;;-140.72;0.00;52445.66;5003485;28;19925;-72
2023/05/23 09:40:14;;;;;;;;;;;;;;;-140.72;0.00;52467.97;5007835;28;19918;-72
2023/05/23 09:42:43;;;;;;;;;;;;;;;-140.72;0.00;52459.84;5014109;28;20064;-72
2023/05/23 09:45:09;;;;;;;;;;;;;;;-140.72;0.00;52417.25;5015031;28;19996;-71
2023/05/23 09:47:35;;;;;;;;;;;;;;;-140.72;0.00;52390.84;4998535;28;20004;-72
2023/05/23 09:50:00;;;;;;;;;;;;;;;-140.72;0.00;52330.00;5014887;28;19924;-71
2023/05/23 09:52:25;;;;;;;;;;;;;;;-140.72;0.00;52386.81;5012471;28;20437;-72
2023/05/23 09:54:51;;;;;;;;;;;;;;;-140.72;0.00;52394.91;4996575;28;19985;-72
2023/05/23 09:57:18;;;;;;;;;;;;;;;-140.72;0.00;52392.88;5014494;28;19917;-71
2023/05/23 09:59:50;;;;;;;;;;;;;;;-140.72;0.00;52277.22;5014025;28;20434;-72
2023/05/23 10:02:15;;;;;;;;;;;;;;;-140.72;0.00;52354.34;5014002;28;19922;-72
2023/05/23 10:04:42;;;;;;;;;;;;;;;-140.72;0.00;52421.28;5013054;28;19917;-72
2023/05/23 10:07:14;;;;;;;;;;;;;;;-140.72;0.00;52338.09;5014183;28;20020;-72
2023/05/23 10:09:41;;;;;;;;;;;;;;;-140.72;0.00;52386.81;5014622;28;19961;-72
2023/05/23 10:12:25;;;;;;;;;;;;;;;-140.72;0.00;52425.34;5009435;28;19918;-72
2023/05/23 10:14:53;;;;;;;;;;;;;;;-140.72;0.00;52394.91;5001852;28;19937;-72
2023/05/23 10:17:25;;;;;;;;;;;;;;;-140.72;0.00;52338.09;5021951;28;19917;-71
2023/05/23 10:19:51;;;;;;;;;;;;;;;-140.72;0.00;52388.84;5013878;28;20318;-72
2023/05/23 10:22:16;;;;;;;;;;;;;;;-140.72;0.00;52405.06;5013089;28;19932;-72
2023/05/23 10:24:43;;;;;;;;;;;;;;;-140.72;0.00;52348.25;5013499;28;19964;-72
2023/05/23 10:27:09;;;;;;;;;;;;;;;-140.72;0.00;52305.63;5013833;28;19924;-72
2023/05/23 10:29:35;;;;;;;;;;;;;;;-140.72;0.00;52372.59;5013435;28;19921;-71
2023/05/23 10:32:01;;;;;;;;;;;;;;;-140.72;0.00;52378.69;5013332;28;19918;-71
2023/05/23 10:34:31;;;;;;;;;;;;;;;-140.72;0.00;52401.00;5022987;28;19917;-72
2023/05/23 10:37:01;;;;;;;;;;;;;;;-140.72;0.00;52240.72;5022913;28;19964;-72
2023/05/23 10:39:52;;;;;;;;;;;;;;;-140.72;0.00;52224.47;5015939;28;20013;-72
2023/05/23 10:42:26;;;;;;;;;;;;;;;-140.72;0.00;52204.19;5008252;28;19925;-72
2023/05/23 10:44:51;;;;;;;;;;;;;;;-140.72;0.00;52196.06;5016867;28;19918;-72
2023/05/23 10:47:27;;;;;;;;;;;;;;;-140.72;0.00;52169.69;5016630;28;20402;-72
2023/05/23 10:49:53;;;;;;;;;;;;;;;-140.72;0.00;52224.47;5017180;28;19922;-72
2023/05/23 10:52:20;;;;;;;;;;;;;;;-140.72;0.00;52273.19;5016612;28;19962;-72
2023/05/23 10:54:53;;;;;;;;;;;;;;;-140.72;0.00;52283.31;5017477;28;19921;-72
2023/05/23 10:57:19;;;;;;;;;;;;;;;-140.72;0.00;52344.19;5016491;28;20016;-72
2023/05/23 10:59:48;;;;;;;;;;;;;;;-140.72;0.00;52394.91;5016276;28;19922;-72
2023/05/23 11:02:14;;;;;;;;;;;;;;;-140.72;0.00;52431.44;5005006;28;20299;-71
2023/05/23 11:04:39;;;;;;;;;;;;;;;-140.72;0.00;52378.69;5010373;28;19922;-71
2023/05/23 11:07:05;;;;;;;;;;;;;;;-140.72;0.00;52401.00;4997648;28;19945;-71
2023/05/23 11:09:30;;;;;;;;;;;;;;;-140.72;0.00;52273.19;5010133;28;19918;-71
2023/05/23 11:12:04;;;;;;;;;;;;;;;-140.72;0.00;52261.00;4997472;28;19922;-71
2023/05/23 11:14:36;;;;;;;;;;;;;;;-140.72;0.00;52218.38;5006118;28;19917;-71
2023/05/23 11:17:10;;;;;;;;;;;;;;;-140.72;0.00;52094.63;5003825;28;19979;-72
2023/05/23 11:19:35;;;;;;;;;;;;;;;-140.72;0.00;52066.22;5015760;28;20008;-72
2023/05/23 11:22:01;;;;;;;;;;;;;;;-140.72;0.00;52214.34;5002635;28;19928;-71
2023/05/23 11:24:45;;;;;;;;;;;;;;;-140.72;0.00;52153.47;5011181;28;19917;-71
2023/05/23 11:27:11;;;;;;;;;;;;;;;-140.72;0.00;52139.25;5015670;28;19925;-72
2023/05/23 11:29:36;;;;;;;;;;;;;;;-140.72;0.00;52244.78;5015584;28;19917;-71
2023/05/23 11:32:08;;;;;;;;;;;;;;;-140.72;0.00;52173.75;5016586;28;19972;-71
2023/05/23 11:34:34;;;;;;;;;;;;;;;-140.72;0.00;52265.06;5015770;28;20286;-71
2023/05/23 11:36:59;;;;;;;;;;;;;;;-140.72;0.00;52301.59;5016072;28;19918;-71
2023/05/23 11:39:24;;;;;;;;;;;;;;;-140.72;0.00;52332.03;5011733;28;19921;-71
2023/05/23 11:41:59;;;;;;;;;;;;;;;-140.72;0.00;52261.00;5013462;28;19922;-71
2023/05/23 11:44:25;;;;;;;;;;;;;;;-140.72;0.00;52153.47;5002953;28;19922;-70
2023/05/23 11:47:00;;;;;;;;;;;;;;;-140.72;0.00;52234.63;5015958;28;20083;-71
2023/05/23 11:49:27;;;;;;;;;;;;;;;-140.72;0.00;52261.00;5003713;28;19917;-72
2023/05/23 11:51:52;;;;;;;;;;;;;;;-140.72;0.00;52155.50;5015714;28;20397;-72
2023/05/23 11:54:21;;;;;;;;;;;;;;;-140.72;0.00;52206.22;5014743;28;20004;-71
2023/05/23 11:56:46;;;;;;;;;;;;;;;-140.72;0.00;52200.13;5016014;28;20379;-71
2023/05/23 11:59:11;;;;;;;;;;;;;;;-140.72;0.00;52198.09;5002913;28;20005;-71
2023/05/23 12:01:37;;;;;;;;;;;;;;;-140.72;0.00;52080.41;5015604;28;20041;-71
2023/05/23 12:04:08;;;;;;;;;;;;;;;-140.72;0.00;52151.44;5015138;28;19925;-71
2023/05/23 12:06:33;;;;;;;;;;;;;;;-140.72;0.00;52074.34;5015315;28;20351;-71
2023/05/23 12:08:59;;;;;;;;;;;;;;;-140.72;0.00;52084.47;5015215;28;19949;-71
2023/05/23 12:11:25;;;;;;;;;;;;;;;-140.72;0.00;52194.03;5013361;28;19937;-71
2023/05/23 12:13:51;;;;;;;;;;;;;;;-140.72;0.00;52269.13;5012542;28;20391;-71
2023/05/23 12:16:16;;;;;;;;;;;;;;;-140.72;0.00;52204.19;5004592;28;19917;-71
2023/05/23 12:18:41;;;;;;;;;;;;;;;-140.72;0.00;52273.19;5011751;28;19968;-71
2023/05/23 12:21:07;;;;;;;;;;;;;;;-140.72;0.00;52232.59;5014820;28;19949;-71
2023/05/23 12:23:32;;;;;;;;;;;;;;;-140.72;0.00;52273.19;5012140;28;19918;-73
2023/05/23 12:25:58;;;;;;;;;;;;;;;-140.72;0.00;52212.31;5005569;28;19918;-71